Time;durP1;ratioP1;P1;durP2;ratioP2;P2;SDS_P1;SDS_P2;PMS_P1;PMS_P2;Temp;Humidity;BMP_temperature;BMP_pressure;BME280_temperature;BME280_humidity;BME280_pressure;Samples;Min_cycle;Max_cycle;Signal;HPM_P1;HPM_P2
2023/03/18 00:02:59;;;;;;;11.93;9.70;;;6.10;48.90;;;;;;6252470;28;20474;-59
2023/03/18 00:06:07;;;;;;;10.93;9.80;;;6.10;48.90;;;;;;6252033;28;21046;-59
2023/03/18 00:09:13;;;;;;;10.87;8.33;;;6.10;49.00;;;;;;6252764;28;20470;-60
2023/03/18 00:12:16;;;;;;;13.20;9.40;;;6.10;49.00;;;;;;6252465;28;20968;-59
2023/03/18 00:15:20;;;;;;;9.90;8.50;;;6.00;49.10;;;;;;6251750;28;20495;-60
2023/03/18 00:18:23;;;;;;;9.73;8.43;;;6.00;49.00;;;;;;6251969;28;20511;-59
2023/03/18 00:21:26;;;;;;;9.93;8.80;;;5.90;49.40;;;;;;6251531;28;20475;-59
2023/03/18 00:24:31;;;;;;;15.30;8.97;;;5.90;49.40;;;;;;6251884;28;20476;-60
2023/03/18 00:27:35;;;;;;;9.80;7.53;;;5.90;50.10;;;;;;6251847;28;20470;-59
2023/03/18 00:30:40;;;;;;;11.27;8.97;;;5.80;49.70;;;;;;6252132;28;20943;-59
2023/03/18 00:33:44;;;;;;;9.83;8.13;;;5.80;49.70;;;;;;6252012;28;20563;-59
2023/03/18 00:36:49;;;;;;;9.33;8.33;;;5.70;49.90;;;;;;6251468;28;20483;-59
2023/03/18 00:39:54;;;;;;;10.97;8.80;;;5.70;49.90;;;;;;6251664;28;20508;-59
2023/03/18 00:43:06;;;;;;;9.03;8.10;;;5.70;50.20;;;;;;6251322;28;20483;-59
2023/03/18 00:46:10;;;;;;;11.40;8.33;;;5.60;50.30;;;;;;6251453;28;20489;-59
2023/03/18 00:49:14;;;;;;;8.80;7.87;;;5.60;50.40;;;;;;6251033;28;20789;-59
2023/03/18 00:52:18;;;;;;;9.60;8.33;;;5.50;50.40;;;;;;6250873;28;20474;-59
2023/03/18 00:55:23;;;;;;;12.17;7.93;;;5.50;50.40;;;;;;6250633;28;20482;-59
2023/03/18 00:58:26;;;;;;;10.07;8.30;;;5.50;50.50;;;;;;6246117;28;20467;-60
2023/03/18 01:01:30;;;;;;;9.53;8.03;;;5.50;50.90;;;;;;6251135;28;20478;-59
2023/03/18 01:04:33;;;;;;;11.03;8.33;;;5.40;50.90;;;;;;6249827;28;20494;-60
2023/03/18 01:07:36;;;;;;;12.90;8.87;;;5.50;51.20;;;;;;6250474;28;20475;-59
2023/03/18 01:10:41;;;;;;;10.87;8.67;;;5.40;51.40;;;;;;6250574;28;20470;-59
2023/03/18 01:13:46;;;;;;;19.37;8.67;;;5.40;51.40;;;;;;6250473;28;20746;-59
2023/03/18 01:16:49;;;;;;;10.97;8.10;;;5.40;51.30;;;;;;6250644;28;20548;-59
2023/03/18 01:19:52;;;;;;;9.97;8.97;;;5.30;51.30;;;;;;6250161;28;20475;-59
2023/03/18 01:22:57;;;;;;;9.80;8.03;;;5.40;51.60;;;;;;6250192;28;20514;-59
2023/03/18 01:26:02;;;;;;;9.43;8.33;;;5.30;51.50;;;;;;6250103;28;20475;-60
2023/03/18 01:29:05;;;;;;;12.47;8.63;;;5.30;51.70;;;;;;6250409;28;20541;-59
2023/03/18 01:32:08;;;;;;;12.20;8.53;;;5.20;51.70;;;;;;6249840;28;20495;-59
2023/03/18 01:35:12;;;;;;;10.50;8.97;;;5.20;51.70;;;;;;6249917;28;20467;-59
2023/03/18 01:38:15;;;;;;;9.30;8.27;;;5.20;51.70;;;;;;6249676;28;20475;-59
2023/03/18 01:41:19;;;;;;;14.73;8.07;;;5.20;51.80;;;;;;6249858;28;20486;-59
2023/03/18 01:44:24;;;;;;;10.10;9.10;;;5.10;52.00;;;;;;6249884;28;20483;-59
2023/03/18 01:47:28;;;;;;;9.10;7.97;;;5.10;52.20;;;;;;6249963;28;20463;-59
2023/03/18 01:50:33;;;;;;;13.83;8.20;;;5.10;52.30;;;;;;6250264;28;20443;-60
2023/03/18 01:53:41;;;;;;;10.07;7.50;;;5.10;52.30;;;;;;6249568;28;20439;-60
2023/03/18 01:56:49;;;;;;;11.23;7.63;;;5.10;52.40;;;;;;6249487;28;20470;-60
2023/03/18 01:59:54;;;;;;;8.33;7.40;;;5.10;52.40;;;;;;6249391;28;20481;-60
2023/03/18 02:02:59;;;;;;;9.47;7.73;;;5.00;52.20;;;;;;6250050;28;20475;-60
2023/03/18 02:06:03;;;;;;;13.10;8.07;;;4.90;52.30;;;;;;6249413;28;20481;-60
2023/03/18 02:09:07;;;;;;;9.80;8.07;;;4.90;52.50;;;;;;6249645;28;20470;-58
2023/03/18 02:12:13;;;;;;;10.37;8.00;;;4.90;52.50;;;;;;6249067;28;20467;-59
2023/03/18 02:15:18;;;;;;;9.20;7.77;;;4.90;52.90;;;;;;6249375;28;20475;-59
2023/03/18 02:18:27;;;;;;;8.90;7.40;;;4.80;53.10;;;;;;6249532;28;20471;-59
2023/03/18 02:21:40;;;;;;;11.57;7.20;;;4.80;53.50;;;;;;6249409;28;20481;-64
2023/03/18 02:24:54;;;;;;;9.37;7.43;;;4.70;53.80;;;;;;6248870;28;20490;-59
2023/03/18 02:28:03;;;;;;;11.30;8.20;;;4.80;54.00;;;;;;6249261;28;20471;-59
2023/03/18 02:31:10;;;;;;;9.00;7.40;;;4.70;54.10;;;;;;6249248;28;20466;-59
2023/03/18 02:34:14;;;;;;;10.73;7.77;;;4.70;54.20;;;;;;6249092;28;20471;-59
2023/03/18 02:37:17;;;;;;;10.70;7.80;;;4.70;54.30;;;;;;6249286;28;20490;-59
2023/03/18 02:40:26;;;;;;;12.13;6.83;;;4.60;54.30;;;;;;6249108;28;21133;-60
2023/03/18 02:43:32;;;;;;;8.37;7.60;;;4.60;54.20;;;;;;6249638;28;20748;-61
2023/03/18 02:46:45;;;;;;;9.00;7.60;;;4.60;54.50;;;;;;6249534;28;20475;-64
2023/03/18 02:49:48;;;;;;;12.10;7.17;;;4.60;54.60;;;;;;6247369;28;20467;-64
2023/03/18 02:52:51;;;;;;;10.37;7.87;;;4.60;54.70;;;;;;6247955;28;20490;-63
2023/03/18 02:55:55;;;;;;;9.37;7.87;;;4.50;54.60;;;;;;6248289;28;20479;-62
2023/03/18 02:59:00;;;;;;;13.77;7.90;;;4.50;54.70;;;;;;6248273;28;20676;-63
2023/03/18 03:02:03;;;;;;;10.07;8.63;;;4.50;54.80;;;;;;6247550;28;20985;-63
2023/03/18 03:05:08;;;;;;;9.03;7.83;;;4.50;55.00;;;;;;6247825;28;20477;-64
2023/03/18 03:08:11;;;;;;;10.10;7.50;;;4.50;55.10;;;;;;6239342;28;20474;-64
2023/03/18 03:11:15;;;;;;;7.33;6.70;;;4.40;54.90;;;;;;6247976;28;20474;-63
2023/03/18 03:14:19;;;;;;;12.60;8.10;;;4.40;55.20;;;;;;6249206;28;20478;-63
2023/03/18 03:17:23;;;;;;;7.40;6.60;;;4.40;55.30;;;;;;6248352;28;20481;-63
2023/03/18 03:20:26;;;;;;;9.23;8.20;;;4.40;55.40;;;;;;6248288;28;20979;-63
2023/03/18 03:23:29;;;;;;;9.23;6.67;;;4.40;55.30;;;;;;6248039;28;20905;-64
2023/03/18 03:26:33;;;;;;;11.40;8.23;;;4.40;55.40;;;;;;6247010;28;20455;-63
2023/03/18 03:29:38;;;;;;;8.83;7.90;;;4.40;55.50;;;;;;6248929;28;20758;-63
2023/03/18 03:32:41;;;;;;;7.93;7.13;;;4.30;55.50;;;;;;6248246;28;20449;-63
2023/03/18 03:35:45;;;;;;;14.43;10.27;;;4.30;55.60;;;;;;6253902;28;20939;-62
2023/03/18 03:38:48;;;;;;;8.07;6.60;;;4.30;55.70;;;;;;6254668;28;20477;-62
2023/03/18 03:41:51;;;;;;;13.10;7.50;;;4.20;55.80;;;;;;6253957;28;20463;-63
2023/03/18 03:44:56;;;;;;;9.60;8.13;;;4.20;55.90;;;;;;6253372;28;20521;-64
2023/03/18 03:47:59;;;;;;;11.17;7.90;;;4.10;56.10;;;;;;6253735;28;20777;-63
2023/03/18 03:51:03;;;;;;;9.57;7.17;;;4.10;56.30;;;;;;6254979;28;20470;-63
2023/03/18 03:54:06;;;;;;;8.60;7.83;;;4.10;56.40;;;;;;6261224;28;20562;-63
2023/03/18 03:57:10;;;;;;;9.93;7.17;;;4.00;56.40;;;;;;6253286;28;20491;-62
2023/03/18 04:00:17;;;;;;;10.80;7.20;;;4.00;56.80;;;;;;6253323;28;20494;-63
2023/03/18 04:03:21;;;;;;;12.73;7.87;;;4.00;56.80;;;;;;6251990;28;20474;-63
2023/03/18 04:06:24;;;;;;;11.30;8.30;;;3.90;56.80;;;;;;6252105;28;20467;-63
2023/03/18 04:09:27;;;;;;;8.20;6.90;;;3.90;57.30;;;;;;6247570;28;20481;-63
2023/03/18 04:12:30;;;;;;;8.90;7.03;;;3.90;57.50;;;;;;6252129;28;20478;-63
2023/03/18 04:15:35;;;;;;;8.40;7.50;;;3.90;57.60;;;;;;6252188;28;20506;-64
2023/03/18 04:18:39;;;;;;;8.80;7.60;;;3.90;57.60;;;;;;6252433;28;20475;-63
2023/03/18 04:21:42;;;;;;;9.03;7.40;;;3.90;57.40;;;;;;6252564;28;20477;-63
2023/03/18 04:24:46;;;;;;;8.90;7.60;;;3.90;57.50;;;;;;6252775;28;20490;-64
2023/03/18 04:27:51;;;;;;;9.20;8.40;;;3.90;57.60;;;;;;6253878;28;20475;-63
2023/03/18 04:30:55;;;;;;;11.90;8.30;;;3.90;57.80;;;;;;6253357;28;20467;-63
2023/03/18 04:33:59;;;;;;;8.90;7.83;;;3.90;57.70;;;;;;6251340;28;20973;-63
2023/03/18 04:37:02;;;;;;;10.00;7.33;;;3.90;57.70;;;;;;6251534;28;20842;-63
2023/03/18 04:40:07;;;;;;;12.60;7.57;;;3.80;57.80;;;;;;6250742;28;20481;-63
2023/03/18 04:43:10;;;;;;;12.10;8.70;;;3.80;57.80;;;;;;6251782;28;20474;-63
2023/03/18 04:46:15;;;;;;;9.03;7.30;;;3.80;58.00;;;;;;6251823;28;20979;-62
2023/03/18 04:49:18;;;;;;;8.10;7.30;;;3.80;58.00;;;;;;6251529;28;20837;-63
2023/03/18 04:52:22;;;;;;;9.67;7.10;;;3.80;58.00;;;;;;6251732;28;20482;-63
2023/03/18 04:55:25;;;;;;;10.30;7.20;;;3.80;58.00;;;;;;6251165;28;20471;-63
2023/03/18 04:58:28;;;;;;;9.97;7.90;;;3.80;57.90;;;;;;6251449;28;20479;-63
2023/03/18 05:01:33;;;;;;;9.80;7.87;;;3.80;58.00;;;;;;6251730;28;20490;-63
2023/03/18 05:04:38;;;;;;;11.17;7.60;;;3.80;58.20;;;;;;6251781;28;20774;-62
2023/03/18 05:07:42;;;;;;;14.10;7.53;;;3.80;58.30;;;;;;6251455;28;20474;-63
2023/03/18 05:10:46;;;;;;;9.80;8.10;;;3.70;58.30;;;;;;6251570;28;20467;-63
2023/03/18 05:13:49;;;;;;;10.80;9.60;;;3.80;58.40;;;;;;6250917;28;20470;-62
2023/03/18 05:16:54;;;;;;;11.37;8.17;;;3.70;58.40;;;;;;6251157;28;20486;-63
2023/03/18 05:19:57;;;;;;;8.70;7.80;;;3.70;58.40;;;;;;6250817;28;20824;-63
2023/03/18 05:23:00;;;;;;;8.13;6.90;;;3.80;58.40;;;;;;6251016;28;20470;-63
2023/03/18 05:26:04;;;;;;;12.43;8.53;;;3.80;58.30;;;;;;6250918;28;20479;-62
2023/03/18 05:29:07;;;;;;;10.30;7.97;;;3.80;58.40;;;;;;6250935;28;20482;-63
2023/03/18 05:32:13;;;;;;;8.90;7.67;;;3.90;58.50;;;;;;6250380;28;20740;-63
2023/03/18 05:35:18;;;;;;;9.83;7.70;;;3.90;58.40;;;;;;6250649;28;20479;-63
2023/03/18 05:38:21;;;;;;;10.37;7.40;;;3.90;58.40;;;;;;6250356;28;20482;-64
2023/03/18 05:41:24;;;;;;;9.33;7.67;;;4.00;58.40;;;;;;6253377;28;20463;-64
2023/03/18 05:44:28;;;;;;;10.87;8.40;;;4.00;58.20;;;;;;6252760;28;20455;-63
2023/03/18 05:47:32;;;;;;;12.27;8.00;;;4.10;58.40;;;;;;6250769;28;20490;-63
2023/03/18 05:50:42;;;;;;;10.93;8.20;;;4.10;58.30;;;;;;6250286;28;20770;-62
2023/03/18 05:53:45;;;;;;;16.40;9.17;;;4.10;58.20;;;;;;6250434;28;20444;-63
2023/03/18 05:56:48;;;;;;;12.80;9.27;;;4.20;58.00;;;;;;6249769;28;20947;-63
2023/03/18 05:59:52;;;;;;;10.23;7.70;;;4.20;57.80;;;;;;6250466;28;20475;-64
2023/03/18 06:02:58;;;;;;;8.00;6.90;;;4.20;57.80;;;;;;6249969;28;20475;-63
2023/03/18 06:06:01;;;;;;;7.67;6.90;;;4.30;57.80;;;;;;6249126;28;20481;-63
2023/03/18 06:09:05;;;;;;;9.83;7.57;;;4.30;57.50;;;;;;6249595;28;20478;-63
2023/03/18 06:12:09;;;;;;;10.90;8.43;;;4.50;57.60;;;;;;6249556;28;20775;-64
2023/03/18 06:15:13;;;;;;;12.33;7.37;;;4.50;57.10;;;;;;6249900;28;20482;-64
2023/03/18 06:18:18;;;;;;;9.23;7.57;;;4.50;56.90;;;;;;6241004;28;20494;-63
2023/03/18 06:21:21;;;;;;;12.23;9.20;;;4.70;56.90;;;;;;6250291;28;20462;-63
2023/03/18 06:24:25;;;;;;;8.93;8.00;;;4.80;56.60;;;;;;6249581;28;20789;-63
2023/03/18 06:27:29;;;;;;;10.10;7.80;;;4.70;56.30;;;;;;6249552;28;20479;-64
2023/03/18 06:30:32;;;;;;;13.50;8.87;;;4.80;56.20;;;;;;6249685;28;20466;-64
2023/03/18 06:33:37;;;;;;;8.30;7.50;;;4.90;56.10;;;;;;6249248;28;20479;-64
2023/03/18 06:36:40;;;;;;;12.90;8.87;;;4.90;55.90;;;;;;6249964;28;20483;-63
2023/03/18 06:39:44;;;;;;;11.13;8.40;;;5.00;56.00;;;;;;6250388;28;20841;-63
2023/03/18 06:42:47;;;;;;;9.47;7.83;;;5.00;56.30;;;;;;6251328;28;20490;-63
2023/03/18 06:45:51;;;;;;;9.87;8.20;;;5.00;56.40;;;;;;6251758;28;20972;-64
2023/03/18 06:48:56;;;;;;;11.10;7.77;;;5.10;56.30;;;;;;6250404;28;20471;-63
2023/03/18 06:51:59;;;;;;;12.10;8.83;;;5.20;55.90;;;;;;6249659;28;20478;-63
2023/03/18 06:55:02;;;;;;;9.30;8.40;;;5.30;55.80;;;;;;6249102;28;20495;-62
2023/03/18 06:58:06;;;;;;;11.87;8.10;;;5.50;55.70;;;;;;6249542;28;20486;-62
2023/03/18 07:01:11;;;;;;;10.87;8.90;;;5.60;55.40;;;;;;6249453;28;20485;-63
2023/03/18 07:04:16;;;;;;;10.50;8.17;;;5.90;55.10;;;;;;6252002;28;20478;-63
2023/03/18 07:07:20;;;;;;;10.30;8.67;;;6.20;54.50;;;;;;6254253;28;20794;-63
2023/03/18 07:10:26;;;;;;;11.70;8.20;;;6.60;53.50;;;;;;6254221;28;20482;-63
2023/03/18 07:13:29;;;;;;;8.93;8.07;;;8.10;52.70;;;;;;6254936;28;20479;-62
2023/03/18 07:16:32;;;;;;;9.30;7.77;;;11.00;47.40;;;;;;6254107;28;20483;-63
2023/03/18 07:19:37;;;;;;;8.83;7.93;;;13.70;41.70;;;;;;6253807;28;20475;-64
2023/03/18 07:22:41;;;;;;;8.80;7.90;;;15.80;37.00;;;;;;6250232;28;20485;-64
2023/03/18 07:25:45;;;;;;;11.60;8.80;;;17.50;32.60;;;;;;6254065;28;20486;-65
2023/03/18 07:28:48;;;;;;;8.30;7.50;;;19.00;29.50;;;;;;6254239;28;20471;-62
2023/03/18 07:31:51;;;;;;;10.10;8.47;;;19.80;28.10;;;;;;6254003;28;20490;-63
2023/03/18 07:34:56;;;;;;;10.70;8.77;;;20.80;26.70;;;;;;6254370;28;20232;-62
2023/03/18 07:37:59;;;;;;;9.30;8.40;;;21.80;25.30;;;;;;6254780;28;20294;-63
2023/03/18 07:41:03;;;;;;;10.17;9.17;;;22.50;24.10;;;;;;6253962;28;20224;-63
2023/03/18 07:44:07;;;;;;;10.43;9.43;;;22.50;23.20;;;;;;6253220;28;20232;-63
2023/03/18 07:47:10;;;;;;;11.13;10.07;;;22.40;23.10;;;;;;6253171;28;20236;-63
2023/03/18 07:50:16;;;;;;;10.60;9.20;;;22.90;22.80;;;;;;6253192;28;20239;-64
2023/03/18 07:53:19;;;;;;;10.23;9.27;;;23.80;22.10;;;;;;6252898;28;20228;-63
2023/03/18 07:56:23;;;;;;;11.43;10.27;;;24.30;21.40;;;;;;6252582;28;20233;-63
2023/03/18 07:59:26;;;;;;;11.77;9.57;;;25.10;20.90;;;;;;6252760;28;20246;-63
2023/03/18 08:02:29;;;;;;;10.90;9.90;;;26.30;20.10;;;;;;6253248;28;20223;-65
2023/03/18 08:05:34;;;;;;;10.10;9.20;;;26.90;19.00;;;;;;6252258;28;20669;-64
2023/03/18 08:08:37;;;;;;;10.33;9.40;;;27.90;18.50;;;;;;6252505;28;20234;-64
2023/03/18 08:11:41;;;;;;;9.97;9.10;;;29.00;17.50;;;;;;6252333;28;20223;-64
2023/03/18 08:14:44;;;;;;;10.20;9.20;;;30.00;16.70;;;;;;6252172;28;20207;-64
2023/03/18 08:17:47;;;;;;;9.30;8.52;;;30.80;15.80;;;;;;6252038;28;20657;-65
2023/03/18 08:20:53;;;;;;;9.65;8.75;;;31.80;15.20;;;;;;6252121;28;20235;-65
2023/03/18 08:23:56;;;;;;;10.45;9.45;;;32.80;14.00;;;;;;6243798;28;20231;-65
2023/03/18 08:27:00;;;;;;;10.68;9.80;;;33.00;13.60;;;;;;6251969;28;20551;-65
2023/03/18 08:30:03;;;;;;;9.57;8.77;;;33.20;13.30;;;;;;6251773;28;20239;-64
2023/03/18 08:33:07;;;;;;;10.90;9.82;;;33.80;13.50;;;;;;6252178;28;20231;-65
2023/03/18 08:36:12;;;;;;;8.98;8.18;;;34.50;12.80;;;;;;6252327;28;20232;-64
2023/03/18 08:39:15;;;;;;;10.55;9.75;;;34.90;12.00;;;;;;6252476;28;20270;-64
2023/03/18 08:42:19;;;;;;;10.23;9.32;;;33.60;11.80;;;;;;6251757;28;20219;-64
2023/03/18 08:45:22;;;;;;;9.88;9.18;;;33.30;12.70;;;;;;6251082;28;20228;-64
2023/03/18 08:48:25;;;;;;;12.05;9.70;;;33.70;12.20;;;;;;6250172;28;20692;-64
2023/03/18 08:51:31;;;;;;;10.70;9.75;;;34.50;11.70;;;;;;6249452;28;20701;-64
2023/03/18 08:54:34;;;;;;;10.45;9.65;;;34.30;11.20;;;;;;6250825;28;20223;-63
2023/03/18 08:57:37;;;;;;;10.30;9.50;;;33.10;11.80;;;;;;6250120;28;20232;-63
2023/03/18 09:00:41;;;;;;;10.48;9.48;;;32.70;12.50;;;;;;6251008;28;20220;-65
2023/03/18 09:03:45;;;;;;;10.35;9.55;;;33.40;13.10;;;;;;6244059;28;20235;-65
2023/03/18 09:06:50;;;;;;;11.18;10.07;;;33.20;12.20;;;;;;6247015;28;20231;-66
2023/03/18 09:09:54;;;;;;;11.45;10.40;;;33.10;12.40;;;;;;6231383;28;20694;-63
2023/03/18 09:12:58;;;;;;;10.65;9.65;;;32.70;12.30;;;;;;6239905;28;20234;-64
2023/03/18 09:16:01;;;;;;;10.02;9.15;;;32.20;12.70;;;;;;6253391;28;20231;-63
2023/03/18 09:19:04;;;;;;;9.82;9.05;;;32.90;12.60;;;;;;6249995;28;20562;-65
2023/03/18 09:22:10;;;;;;;10.80;9.80;;;34.80;12.00;;;;;;6249333;28;20233;-64
2023/03/18 09:25:15;;;;;;;10.63;9.82;;;35.30;11.20;;;;;;6249524;28;20330;-63
2023/03/18 09:28:18;;;;;;;10.10;9.20;;;36.50;11.20;;;;;;6245060;28;20239;-63
2023/03/18 09:31:21;;;;;;;9.90;9.05;;;37.90;10.30;;;;;;6252652;28;20231;-63
2023/03/18 09:34:25;;;;;;;10.30;9.50;;;38.60;9.90;;;;;;6252468;28;20326;-64
2023/03/18 09:37:29;;;;;;;10.25;9.45;;;39.90;9.70;;;;;;6251578;28;20266;-64
2023/03/18 09:40:36;;;;;;;10.13;9.23;;;40.00;8.80;;;;;;6226591;28;20548;-64
2023/03/18 09:43:56;;;;;;;9.80;8.90;;;39.20;9.20;;;;;;6225766;28;20236;-67
2023/03/18 09:47:20;;;;;;;11.48;10.55;;;38.60;9.70;;;;;;6227168;28;20232;-65
2023/03/18 09:50:33;;;;;;;10.18;9.32;;;39.00;9.30;;;;;;6243219;28;20338;-67
2023/03/18 09:53:44;;;;;;;10.85;9.85;;;39.10;8.90;;;;;;6249760;28;20216;-62
2023/03/18 09:56:48;;;;;;;10.90;9.98;;;38.70;9.20;;;;;;6250121;28;20235;-63
2023/03/18 09:59:55;;;;;;;9.85;9.05;;;36.80;9.90;;;;;;6249487;28;20261;-63
2023/03/18 10:03:03;;;;;;;9.95;9.15;;;38.00;9.80;;;;;;6243177;28;20235;-63
2023/03/18 10:06:15;;;;;;;10.05;9.25;;;38.70;9.30;;;;;;6229400;28;20312;-63
2023/03/18 10:09:27;;;;;;;11.07;10.18;;;38.50;9.10;;;;;;6225239;28;20240;-64
2023/03/18 10:12:32;;;;;;;9.98;9.18;;;39.20;9.10;;;;;;6237807;28;20223;-64
2023/03/18 10:15:40;;;;;;;10.18;9.38;;;40.20;8.70;;;;;;6250072;28;20235;-63
2023/03/18 10:18:44;;;;;;;10.90;9.90;;;41.60;8.30;;;;;;6243846;28;20255;-63
2023/03/18 10:21:55;;;;;;;10.23;9.35;;;42.80;7.80;;;;;;6225480;28;20243;-62
2023/03/18 10:25:11;;;;;;;10.07;9.18;;;42.90;7.60;;;;;;6227554;28;20705;-63
2023/03/18 10:28:36;;;;;;;10.88;9.98;;;42.30;7.30;;;;;;6224946;28;20239;-63
2023/03/18 10:31:52;;;;;;;10.68;9.80;;;41.40;7.70;;;;;;6223878;28;20258;-63
2023/03/18 10:35:08;;;;;;;9.85;9.10;;;42.80;7.30;;;;;;6223696;28;20239;-63
2023/03/18 10:38:19;;;;;;;8.98;8.27;;;42.70;7.30;;;;;;6245677;28;20243;-63
2023/03/18 10:41:29;;;;;;;11.75;8.85;;;43.70;6.90;;;;;;6253846;28;20653;-63
2023/03/18 10:44:35;;;;;;;10.05;9.25;;;42.80;6.80;;;;;;6254871;28;20227;-64
2023/03/18 10:47:44;;;;;;;10.07;9.30;;;41.70;7.20;;;;;;6254656;28;20207;-63
2023/03/18 10:50:56;;;;;;;11.45;10.65;;;41.40;7.40;;;;;;6255009;28;20227;-63
2023/03/18 10:54:06;;;;;;;10.25;9.38;;;40.70;7.80;;;;;;6254977;28;20645;-63
2023/03/18 10:57:14;;;;;;;11.52;10.45;;;40.20;7.70;;;;;;6253971;28;20252;-63
2023/03/18 11:00:27;;;;;;;11.75;10.75;;;37.20;9.00;;;;;;6254019;28;20366;-63
2023/03/18 11:03:34;;;;;;;11.68;10.68;;;37.30;9.50;;;;;;6254216;28;20242;-63
2023/03/18 11:06:44;;;;;;;9.48;8.77;;;39.10;8.70;;;;;;6242860;28;20236;-63
2023/03/18 11:09:47;;;;;;;11.60;10.65;;;40.00;8.00;;;;;;6229660;28;20247;-63
2023/03/18 11:12:58;;;;;;;10.32;9.52;;;40.60;7.90;;;;;;6244396;28;20238;-64
2023/03/18 11:16:03;;;;;;;11.10;10.10;;;40.30;7.80;;;;;;6253924;28;20576;-63
2023/03/18 11:19:27;;;;;;;11.05;10.15;;;40.80;7.60;;;;;;6253389;28;20759;-63
2023/03/18 11:22:31;;;;;;;12.00;10.95;;;40.40;7.90;;;;;;6254403;28;20690;-63
2023/03/18 11:25:35;;;;;;;10.55;9.75;;;41.90;7.50;;;;;;6253625;28;20662;-63
2023/03/18 11:28:42;;;;;;;10.68;9.88;;;42.80;6.80;;;;;;6253252;28;20243;-62
2023/03/18 11:32:03;;;;;;;10.77;9.93;;;43.70;6.80;;;;;;6253770;28;20234;-62
2023/03/18 11:35:07;;;;;;;10.95;9.63;;;43.80;6.70;;;;;;6253933;28;20251;-65
2023/03/18 11:38:17;;;;;;;11.35;10.52;;;43.90;6.50;;;;;;6254096;28;20225;-63
2023/03/18 11:41:24;;;;;;;10.70;9.85;;;43.00;6.50;;;;;;6232672;28;20624;-64
2023/03/18 11:44:31;;;;;;;11.32;10.20;;;42.60;6.70;;;;;;6229195;28;20535;-63
2023/03/18 11:47:37;;;;;;;11.07;10.27;;;42.60;6.80;;;;;;6229070;28;20208;-63
2023/03/18 11:51:01;;;;;;;11.68;10.77;;;40.80;7.00;;;;;;6226820;28;20188;-63
2023/03/18 11:54:18;;;;;;;10.70;9.82;;;38.70;7.70;;;;;;6226241;28;20229;-63
2023/03/18 11:57:27;;;;;;;11.93;10.82;;;38.90;8.10;;;;;;6227249;28;20939;-63
2023/03/18 12:00:37;;;;;;;12.15;11.05;;;37.90;8.40;;;;;;6227912;28;20228;-64
2023/03/18 12:04:10;;;;;;;11.77;10.88;;;37.20;8.80;;;;;;6227355;28;20239;-64
2023/03/18 12:07:41;;;;;;;11.23;10.32;;;38.10;8.90;;;;;;6224520;28;20232;-64
2023/03/18 12:10:51;;;;;;;10.63;9.55;;;38.90;8.10;;;;;;6227393;28;20627;-63
2023/03/18 12:14:03;;;;;;;11.95;11.02;;;39.30;8.20;;;;;;6250606;28;20569;-63
2023/03/18 12:17:20;;;;;;;11.50;10.48;;;39.60;8.00;;;;;;6252651;28;20240;-63
2023/03/18 12:20:39;;;;;;;11.40;10.50;;;39.80;8.10;;;;;;6251494;28;20220;-63
2023/03/18 12:24:09;;;;;;;11.05;10.15;;;40.30;7.70;;;;;;6250071;28;20217;-64
2023/03/18 12:27:20;;;;;;;11.23;10.18;;;40.50;7.50;;;;;;6250224;28;20317;-65
2023/03/18 12:30:46;;;;;;;10.90;10.00;;;41.10;7.70;;;;;;6251796;28;20238;-67
2023/03/18 12:33:57;;;;;;;11.35;10.35;;;42.20;7.20;;;;;;6249493;28;20697;-63
2023/03/18 12:37:16;;;;;;;11.23;10.15;;;42.80;6.80;;;;;;6251597;28;20231;-66
2023/03/18 12:40:45;;;;;;;10.77;9.75;;;40.70;7.40;;;;;;6251801;28;20234;-65
2023/03/18 12:44:10;;;;;;;11.80;10.70;;;39.60;7.70;;;;;;6251595;28;20707;-66
2023/03/18 12:47:20;;;;;;;11.60;10.55;;;40.50;7.80;;;;;;6251640;28;20234;-65
2023/03/18 12:50:28;;;;;;;12.68;11.57;;;41.50;7.30;;;;;;6250943;28;20243;-66
2023/03/18 12:53:35;;;;;;;13.85;12.68;;;42.30;7.10;;;;;;6251485;28;20208;-64
2023/03/18 12:56:43;;;;;;;12.57;11.48;;;42.00;7.10;;;;;;6250802;28;20246;-66
2023/03/18 12:59:55;;;;;;;12.55;11.60;;;40.40;7.50;;;;;;6250234;28;20199;-67
2023/03/18 13:03:04;;;;;;;13.50;12.30;;;38.00;9.00;;;;;;6249486;28;20649;-66
2023/03/18 13:06:16;;;;;;;14.52;13.23;;;37.50;8.80;;;;;;6249694;28;20686;-65
2023/03/18 13:09:26;;;;;;;14.82;13.52;;;36.80;9.30;;;;;;6250187;28;20246;-66
2023/03/18 13:12:32;;;;;;;13.98;12.68;;;35.20;9.90;;;;;;6249764;28;20220;-64
2023/03/18 13:15:41;;;;;;;14.68;13.38;;;32.50;11.60;;;;;;6248213;28;20236;-65
2023/03/18 13:18:50;;;;;;;14.13;12.77;;;32.60;11.70;;;;;;6254823;28;20227;-67
2023/03/18 13:22:07;;;;;;;14.18;12.65;;;33.50;11.10;;;;;;6258959;28;20231;-64
2023/03/18 13:25:22;;;;;;;15.18;13.68;;;34.20;11.10;;;;;;6259050;28;20235;-64
2023/03/18 13:28:42;;;;;;;12.77;11.68;;;33.60;10.90;;;;;;6251791;28;20224;-64
2023/03/18 13:31:52;;;;;;;15.27;13.63;;;33.60;11.40;;;;;;6250434;28;20227;-63
2023/03/18 13:35:49;;;;;;;13.38;11.98;;;34.40;11.10;;;;;;6248478;28;20661;-63
2023/03/18 13:39:15;;;;;;;13.82;12.50;;;34.70;10.70;;;;;;6203403;28;20228;-64
2023/03/18 13:42:24;;;;;;;14.57;13.27;;;33.10;11.40;;;;;;6251105;28;20227;-64
2023/03/18 13:45:30;;;;;;;15.15;13.75;;;31.60;12.00;;;;;;6251428;28;20243;-62
2023/03/18 13:48:35;;;;;;;15.40;14.03;;;29.00;13.80;;;;;;6250595;28;20665;-66
2023/03/18 13:51:50;;;;;;;14.20;12.90;;;26.50;15.60;;;;;;6250028;28;20227;-65
2023/03/18 13:55:01;;;;;;;15.10;13.60;;;23.30;18.20;;;;;;6250585;28;20247;-63
2023/03/18 13:58:21;;;;;;;14.77;13.33;;;21.70;19.90;;;;;;6249784;28;20235;-61
2023/03/18 14:01:32;;;;;;;14.27;12.80;;;21.20;20.60;;;;;;6247816;28;20220;-61
2023/03/18 14:04:46;;;;;;;14.63;13.10;;;21.00;20.90;;;;;;6247797;28;20540;-62
2023/03/18 14:07:49;;;;;;;15.03;13.43;;;20.70;21.30;;;;;;6243079;28;20224;-61
2023/03/18 14:11:43;;;;;;;17.37;12.97;;;20.30;21.80;;;;;;6249481;28;20243;-61
2023/03/18 14:15:29;;;;;;;16.00;13.87;;;19.90;22.50;;;;;;6238056;28;20227;-62
2023/03/18 14:18:35;;;;;;;12.60;11.20;;;19.60;23.10;;;;;;6249469;28;20247;-63
2023/03/18 14:21:47;;;;;;;14.70;11.93;;;19.40;22.90;;;;;;6249520;28;20243;-65
2023/03/18 14:25:34;;;;;;;14.00;12.20;;;19.30;23.00;;;;;;6250028;28;20263;-63
2023/03/18 14:28:49;;;;;;;17.90;12.60;;;18.90;23.90;;;;;;6249860;28;20227;-62
2023/03/18 14:31:58;;;;;;;15.47;11.33;;;18.30;24.70;;;;;;6249606;28;20224;-62
2023/03/18 14:35:26;;;;;;;13.37;11.33;;;17.90;25.10;;;;;;6248818;28;20228;-62
2023/03/18 14:38:36;;;;;;;12.23;10.63;;;17.20;25.50;;;;;;6249039;28;20228;-63
2023/03/18 14:41:44;;;;;;;14.67;12.83;;;17.10;26.10;;;;;;6249787;28;20205;-63
2023/03/18 14:44:53;;;;;;;15.77;12.63;;;17.20;26.20;;;;;;6250137;28;20212;-63
2023/03/18 14:47:58;;;;;;;14.07;11.90;;;17.00;26.60;;;;;;6241848;28;21305;-63
2023/03/18 14:51:05;;;;;;;13.57;11.67;;;16.90;26.80;;;;;;6249035;28;20467;-64
2023/03/18 14:54:20;;;;;;;13.60;11.93;;;16.90;26.70;;;;;;6249229;28;20513;-66
2023/03/18 14:57:24;;;;;;;13.97;12.00;;;17.00;26.80;;;;;;6248902;28;20475;-66
2023/03/18 15:00:32;;;;;;;12.10;10.57;;;17.20;26.90;;;;;;6257199;28;20234;-66
2023/03/18 15:03:38;;;;;;;13.47;11.80;;;17.00;26.90;;;;;;6248215;28;20608;-63
2023/03/18 15:06:42;;;;;;;16.30;11.50;;;17.00;26.80;;;;;;6249455;28;20243;-64
2023/03/18 15:09:48;;;;;;;12.20;10.90;;;16.90;27.00;;;;;;6248731;28;20240;-63
2023/03/18 15:13:00;;;;;;;13.33;11.70;;;16.80;27.40;;;;;;6248957;28;20560;-63
2023/03/18 15:16:06;;;;;;;14.50;11.70;;;16.80;27.40;;;;;;6251986;28;20490;-63
2023/03/18 15:19:11;;;;;;;13.90;11.70;;;16.90;27.50;;;;;;6252375;28;20235;-63
2023/03/18 15:22:24;;;;;;;15.93;10.63;;;16.90;27.80;;;;;;6249611;28;20479;-64
2023/03/18 15:25:28;;;;;;;12.10;10.80;;;16.90;27.60;;;;;;6252685;28;20236;-63
2023/03/18 15:28:32;;;;;;;14.00;12.00;;;16.70;27.70;;;;;;6256018;28;20236;-63
2023/03/18 15:31:44;;;;;;;14.97;12.17;;;16.50;28.10;;;;;;6254350;28;20790;-64
2023/03/18 15:34:52;;;;;;;14.33;11.30;;;16.30;28.30;;;;;;6253361;28;20474;-63
2023/03/18 15:38:14;;;;;;;13.43;11.07;;;16.20;28.60;;;;;;6252829;28;20475;-63
2023/03/18 15:41:20;;;;;;;12.70;10.37;;;16.10;28.50;;;;;;6253754;28;20467;-63
2023/03/18 15:44:27;;;;;;;16.00;11.80;;;16.30;28.60;;;;;;6253286;28;20471;-63
2023/03/18 15:47:32;;;;;;;13.30;11.80;;;16.40;28.40;;;;;;6253340;28;20443;-63
2023/03/18 15:50:37;;;;;;;12.40;11.10;;;16.60;28.30;;;;;;6244287;28;20478;-63
2023/03/18 15:53:42;;;;;;;11.90;10.60;;;16.70;28.10;;;;;;6253271;28;20545;-63
2023/03/18 15:56:47;;;;;;;12.90;11.13;;;16.70;28.00;;;;;;6253081;28;21316;-63
2023/03/18 15:59:51;;;;;;;11.03;10.00;;;16.70;28.00;;;;;;6253033;28;20473;-63
2023/03/18 16:02:55;;;;;;;15.20;10.97;;;16.70;28.10;;;;;;6253714;28;20462;-62
2023/03/18 16:05:59;;;;;;;12.40;10.17;;;16.70;28.00;;;;;;6246829;28;20471;-61
2023/03/18 16:09:14;;;;;;;14.33;10.50;;;16.70;28.00;;;;;;6228942;28;20484;-62
2023/03/18 16:12:20;;;;;;;12.53;10.73;;;16.60;28.00;;;;;;6237741;28;20941;-65